createdAt,value
2018-02-15T00:01:58.393Z,24.83
2018-02-15T00:04:28.304Z,16.42
2018-02-15T00:06:57.349Z,22.73
2018-02-15T00:09:26.230Z,10.35
2018-02-15T00:11:55.120Z,8.05
2018-02-15T00:14:24.025Z,10.35
2018-02-15T00:16:52.940Z,12.68
2018-02-15T00:19:21.836Z,13.02
2018-02-15T00:21:51.390Z,19.30
2018-02-15T00:24:20.241Z,16.45
2018-02-15T00:26:49.826Z,19.75
2018-02-15T00:29:19.514Z,16.20
2018-02-15T00:31:48.627Z,17.60
2018-02-15T00:34:17.419Z,17.50
2018-02-15T00:36:46.349Z,14.73
2018-02-15T00:39:16.105Z,21.48
2018-02-15T00:41:45.096Z,21.30
2018-02-15T00:44:15.026Z,18.45
2018-02-15T00:46:44.015Z,17.62
2018-02-15T00:49:12.956Z,18.92
2018-02-15T00:51:41.777Z,24.70
2018-02-15T00:54:10.578Z,15.27
2018-02-15T00:56:40.132Z,15.75
2018-02-15T00:59:09.818Z,17.85
2018-02-15T01:01:38.626Z,20.37
2018-02-15T01:04:07.394Z,16.90
2018-02-15T01:06:36.345Z,14.80
2018-02-15T01:09:05.367Z,16.08
2018-02-15T01:11:34.118Z,15.73
2018-02-15T01:14:02.872Z,11.75
2018-02-15T01:16:32.328Z,9.23
2018-02-15T01:19:01.112Z,7.80
2018-02-15T01:21:30.649Z,10.48
2018-02-15T01:24:00.305Z,19.00
2018-02-15T01:26:29.263Z,17.30
2018-02-15T01:28:58.053Z,41.60
2018-02-15T01:31:27.528Z,26.08
2018-02-15T01:33:56.260Z,16.37
2018-02-15T01:36:25.690Z,16.40
2018-02-15T01:38:54.588Z,18.17
2018-02-15T01:41:23.559Z,14.75
2018-02-15T01:43:52.394Z,16.37
2018-02-15T01:46:21.252Z,23.40
2018-02-15T01:48:50.258Z,45.30
2018-02-15T01:51:19.068Z,44.85
2018-02-15T01:53:48.540Z,29.12
2018-02-15T01:56:17.313Z,19.62
2018-02-15T01:58:46.853Z,17.40
2018-02-15T02:01:15.756Z,23.48
2018-02-15T02:03:44.524Z,30.70
2018-02-15T02:06:13.229Z,40.00
2018-02-15T02:08:42.007Z,48.47
2018-02-15T02:11:11.165Z,48.35
2018-02-15T02:13:40.761Z,41.97
2018-02-15T02:16:10.189Z,48.75
2018-02-15T02:18:39.434Z,54.80
2018-02-15T02:21:08.982Z,52.92
2018-02-15T02:23:38.030Z,51.10
2018-02-15T02:26:07.566Z,46.17
2018-02-15T02:28:37.081Z,45.63
2018-02-15T02:31:05.822Z,44.13
2018-02-15T02:33:34.816Z,47.28
2018-02-15T02:36:03.540Z,41.75
2018-02-15T02:38:32.527Z,45.08
2018-02-15T02:41:02.066Z,59.97
2018-02-15T02:43:30.789Z,59.53
2018-02-15T02:45:59.698Z,61.20
2018-02-15T02:48:28.737Z,58.38
2018-02-15T02:50:57.833Z,70.93
2018-02-15T02:53:26.619Z,73.05
2018-02-15T02:55:55.661Z,68.50
2018-02-15T02:58:24.379Z,80.12
2018-02-15T03:00:53.163Z,76.45
2018-02-15T03:03:22.655Z,67.05
2018-02-15T03:05:52.291Z,62.60
2018-02-15T03:08:21.054Z,52.67
2018-02-15T03:10:50.131Z,65.80
2018-02-15T03:13:19.605Z,67.62
2018-02-15T03:15:48.520Z,61.78
2018-02-15T03:18:17.338Z,54.70
2018-02-15T03:20:46.907Z,67.30
2018-02-15T03:23:16.598Z,84.87
2018-02-15T03:25:45.409Z,86.07
2018-02-15T03:28:14.136Z,87.97
2018-02-15T03:30:43.270Z,86.65
2018-02-15T03:33:12.344Z,82.78
2018-02-15T03:35:41.115Z,78.60
2018-02-15T03:38:10.579Z,74.43
2018-02-15T03:40:39.350Z,68.93
2018-02-15T03:43:08.079Z,76.78
2018-02-15T03:45:36.898Z,65.53
2018-02-15T03:48:05.717Z,58.50
2018-02-15T03:50:34.760Z,66.45
2018-02-15T03:53:04.239Z,58.70
2018-02-15T03:55:33.022Z,59.97
2018-02-15T03:58:02.033Z,64.62
2018-02-15T04:00:31.078Z,68.18
2018-02-15T04:02:59.826Z,64.43
2018-02-15T04:05:28.707Z,71.53
2018-02-15T04:07:58.313Z,67.43
2018-02-15T04:10:27.217Z,56.35
2018-02-15T04:12:56.940Z,58.00
2018-02-15T04:15:26.905Z,60.65
2018-02-15T04:17:55.880Z,85.87
2018-02-15T04:20:24.669Z,95.95
2018-02-15T04:22:53.582Z,154.27
2018-02-15T04:25:22.374Z,109.10
2018-02-15T04:27:51.260Z,91.63
2018-02-15T04:30:20.832Z,59.10
2018-02-15T04:32:50.054Z,80.55
2018-02-15T04:35:19.073Z,62.47
2018-02-15T04:37:48.842Z,44.10
2018-02-15T04:40:17.658Z,57.33
2018-02-15T04:42:46.426Z,66.05
2018-02-15T04:45:15.132Z,87.28
2018-02-15T04:47:43.862Z,87.05
2018-02-15T04:50:12.669Z,88.50
2018-02-15T04:52:44.611Z,87.47
2018-02-15T04:55:14.690Z,90.95
2018-02-15T04:57:43.565Z,75.95
2018-02-15T05:00:12.561Z,69.05
2018-02-15T05:02:41.709Z,96.87
2018-02-15T05:05:10.580Z,104.57
2018-02-15T05:07:40.384Z,124.82
2018-02-15T05:10:09.215Z,150.68
2018-02-15T05:12:39.089Z,164.18
2018-02-15T05:15:08.695Z,106.15
2018-02-15T05:17:37.549Z,116.45
2018-02-15T05:20:06.318Z,119.75
2018-02-15T05:22:35.286Z,107.53
2018-02-15T05:25:04.256Z,90.82
2018-02-15T05:27:33.800Z,124.78
2018-02-15T05:30:03.372Z,144.40
2018-02-15T05:32:32.169Z,85.12
2018-02-15T05:35:00.944Z,60.90
2018-02-15T05:37:29.827Z,80.82
2018-02-15T05:39:58.688Z,101.30
2018-02-15T05:42:27.551Z,113.15
2018-02-15T05:44:56.309Z,99.28
2018-02-15T05:47:25.032Z,105.55
2018-02-15T05:49:53.919Z,110.25
2018-02-15T05:52:22.888Z,87.93
2018-02-15T05:54:52.569Z,117.55
2018-02-15T05:57:22.098Z,128.87
2018-02-15T05:59:51.025Z,97.68
2018-02-15T06:02:20.146Z,62.33
2018-02-15T06:04:49.037Z,84.18
2018-02-15T06:07:18.064Z,89.82
2018-02-15T06:09:48.245Z,65.20
2018-02-15T06:12:17.010Z,62.88
2018-02-15T06:14:45.899Z,56.47
2018-02-15T06:17:15.651Z,54.55
2018-02-15T06:19:45.249Z,67.32
2018-02-15T06:22:15.325Z,56.65
2018-02-15T06:27:19.974Z,61.88
2018-02-15T06:29:48.741Z,59.25
2018-02-15T06:32:17.677Z,99.70
2018-02-15T06:34:46.877Z,127.82
2018-02-15T06:37:16.144Z,152.00
2018-02-15T06:39:44.934Z,100.85
2018-02-15T06:42:14.070Z,96.15
2018-02-15T06:44:43.750Z,113.30
2018-02-15T06:47:12.468Z,77.40
2018-02-15T06:49:41.378Z,93.12
2018-02-15T06:52:11.051Z,75.20
2018-02-15T06:54:40.214Z,87.60
2018-02-15T06:57:08.977Z,94.35
2018-02-15T06:59:38.004Z,69.75
2018-02-15T07:02:06.832Z,56.47
2018-02-15T07:04:35.906Z,49.72
2018-02-15T07:07:04.955Z,41.33
2018-02-15T07:09:34.440Z,34.75
2018-02-15T07:12:03.176Z,30.00
2018-02-15T07:14:31.947Z,58.73
2018-02-15T07:17:01.731Z,70.87
2018-02-15T07:19:31.671Z,45.03
2018-02-15T07:22:01.179Z,29.93
2018-02-15T07:24:31.160Z,23.97
2018-02-15T07:27:00.030Z,16.57
2018-02-15T07:29:29.330Z,32.63
2018-02-15T07:32:03.198Z,35.43
2018-02-15T07:34:32.053Z,25.20
2018-02-15T07:37:01.137Z,20.07
2018-02-15T07:39:30.153Z,25.27
2018-02-15T07:41:58.882Z,35.77
2018-02-15T07:44:27.635Z,36.17
2018-02-15T07:46:57.183Z,76.17
2018-02-15T07:49:27.013Z,43.33
2018-02-15T07:51:56.252Z,31.13
2018-02-15T07:54:25.166Z,50.30
2018-02-15T07:56:54.115Z,46.77
2018-02-15T07:59:23.719Z,52.60
2018-02-15T08:01:52.852Z,67.83
2018-02-15T08:04:22.606Z,64.73
2018-02-15T08:06:51.511Z,66.33
2018-02-15T08:09:20.592Z,82.47
2018-02-15T08:11:49.642Z,70.97
2018-02-15T08:14:18.566Z,65.97
2018-02-15T08:16:47.475Z,39.00
2018-02-15T08:19:16.309Z,61.13
2018-02-15T08:21:45.962Z,79.37
2018-02-15T08:24:14.692Z,80.60
2018-02-15T08:26:43.467Z,41.83
2018-02-15T08:29:12.303Z,38.97
2018-02-15T08:31:41.262Z,36.20
2018-02-15T08:34:10.214Z,114.73
2018-02-15T08:36:39.030Z,26.33
2018-02-15T08:39:07.860Z,29.80
2018-02-15T08:41:36.716Z,44.83
2018-02-15T08:44:05.817Z,29.33
2018-02-15T08:46:35.338Z,15.97
2018-02-15T08:49:08.239Z,21.67
2018-02-15T08:51:37.965Z,30.47
2018-02-15T08:54:06.922Z,26.13
2018-02-15T08:56:36.558Z,28.73
2018-02-15T08:59:05.474Z,46.23
2018-02-15T09:01:35.632Z,36.67
2018-02-15T09:04:05.235Z,36.77
2018-02-15T09:06:34.296Z,54.30
2018-02-15T09:09:03.333Z,51.63
2018-02-15T09:11:32.958Z,109.60
2018-02-15T09:14:01.776Z,106.70
2018-02-15T09:16:30.507Z,97.77
2018-02-15T09:19:00.109Z,88.40
2018-02-15T09:21:29.166Z,61.97
2018-02-15T09:23:57.970Z,103.80
2018-02-15T09:26:27.046Z,71.10
2018-02-15T09:28:55.730Z,60.20
2018-02-15T09:31:24.844Z,47.20
2018-02-15T09:33:53.573Z,50.60
2018-02-15T09:36:22.339Z,96.63
2018-02-15T09:38:51.141Z,67.47
2018-02-15T09:41:20.019Z,68.27
2018-02-15T09:43:49.004Z,37.77
2018-02-15T09:46:18.537Z,26.40
2018-02-15T09:48:47.298Z,21.80
2018-02-15T09:51:16.102Z,53.77
2018-02-15T09:53:44.902Z,18.07
2018-02-15T09:56:14.511Z,23.83
2018-02-15T09:58:43.586Z,21.97
2018-02-15T10:01:12.382Z,34.47
2018-02-15T10:03:41.749Z,26.40
2018-02-15T10:06:10.601Z,30.00
2018-02-15T10:08:40.440Z,23.37
2018-02-15T10:11:09.437Z,26.93
2018-02-15T10:13:38.440Z,28.27
2018-02-15T10:16:07.417Z,19.63
2018-02-15T10:18:36.369Z,51.57
2018-02-15T10:21:05.167Z,40.83
2018-02-15T10:23:33.929Z,80.67
2018-02-15T10:26:03.661Z,43.67
2018-02-15T10:28:32.629Z,23.57
2018-02-15T10:31:01.344Z,38.53
2018-02-15T10:33:30.205Z,29.07
2018-02-15T10:35:59.987Z,75.03
2018-02-15T10:38:28.991Z,49.60
2018-02-15T10:40:57.805Z,56.37
2018-02-15T10:43:26.958Z,39.17
2018-02-15T10:45:55.809Z,39.23
2018-02-15T10:48:25.398Z,34.70
2018-02-15T10:50:54.209Z,15.43
2018-02-15T10:53:23.113Z,29.80
2018-02-15T10:55:52.002Z,45.20
2018-02-15T10:58:20.822Z,47.63
2018-02-15T11:00:55.317Z,24.90
2018-02-15T11:03:30.066Z,28.43
2018-02-15T11:06:03.722Z,30.37
2018-02-15T11:08:32.651Z,24.47
2018-02-15T11:11:01.398Z,56.73
2018-02-15T11:13:31.184Z,52.60
2018-02-15T11:16:00.367Z,33.57
2018-02-15T11:18:29.354Z,22.10
2018-02-15T11:20:58.099Z,20.97
2018-02-15T11:23:27.024Z,26.13
2018-02-15T11:25:55.805Z,57.87
2018-02-15T11:28:24.597Z,27.53
2018-02-15T11:30:53.460Z,23.70
2018-02-15T11:33:22.973Z,30.33
2018-02-15T11:35:52.477Z,39.63
2018-02-15T11:38:21.321Z,63.13
2018-02-15T11:40:50.123Z,28.33
2018-02-15T11:43:19.084Z,35.57
2018-02-15T11:45:47.902Z,36.00
2018-02-15T11:48:17.069Z,41.80
2018-02-15T11:50:46.144Z,21.70
2018-02-15T11:53:14.922Z,17.17
2018-02-15T11:55:43.994Z,38.80
2018-02-15T11:58:12.875Z,30.03
2018-02-15T12:00:42.630Z,24.37
2018-02-15T12:03:11.598Z,29.30
2018-02-15T12:05:41.145Z,40.80
2018-02-15T12:08:10.011Z,23.03
2018-02-15T12:10:38.884Z,22.57
2018-02-15T12:13:07.797Z,30.13
2018-02-15T12:15:36.671Z,18.23
2018-02-15T12:18:06.205Z,16.93
2018-02-15T12:20:35.348Z,12.43
2018-02-15T12:23:04.404Z,26.43
2018-02-15T12:25:33.389Z,34.50
2018-02-15T12:28:02.105Z,24.20
2018-02-15T12:30:31.692Z,19.20
2018-02-15T12:33:00.579Z,34.80
2018-02-15T12:35:29.800Z,10.53
2018-02-15T12:37:58.747Z,43.90
2018-02-15T12:40:27.635Z,56.43
2018-02-15T12:42:56.506Z,23.27
2018-02-15T12:45:26.078Z,42.63
2018-02-15T12:47:54.951Z,25.70
2018-02-15T12:50:23.862Z,13.93
2018-02-15T12:52:52.617Z,19.93
2018-02-15T12:55:21.463Z,9.83
2018-02-15T12:57:50.348Z,13.20
2018-02-15T13:00:19.295Z,11.00
2018-02-15T13:02:48.089Z,15.70
2018-02-15T13:05:17.000Z,57.30
2018-02-15T13:07:46.710Z,22.17
2018-02-15T13:10:15.493Z,31.47
2018-02-15T13:12:56.387Z,16.63
2018-02-15T13:15:36.693Z,23.40
2018-02-15T13:18:05.350Z,22.10
2018-02-15T13:20:34.269Z,70.70
2018-02-15T13:23:03.060Z,28.53
2018-02-15T13:25:32.383Z,33.57
2018-02-15T13:28:13.248Z,31.80
2018-02-15T13:30:42.713Z,63.53
2018-02-15T13:33:12.298Z,76.77
2018-02-15T13:35:41.106Z,43.83
2018-02-15T13:38:10.017Z,23.27
2018-02-15T13:40:38.832Z,17.80
2018-02-15T13:43:07.665Z,50.90
2018-02-15T13:45:37.182Z,44.93
2018-02-15T13:48:06.066Z,33.63
2018-02-15T13:50:35.810Z,14.07
2018-02-15T13:53:05.396Z,42.63
2018-02-15T13:55:34.429Z,31.37
2018-02-15T13:58:03.230Z,11.03
2018-02-15T14:00:32.096Z,21.47
2018-02-15T14:03:01.023Z,25.83
2018-02-15T14:05:29.962Z,41.77
2018-02-15T14:07:58.970Z,22.67
2018-02-15T14:10:27.687Z,27.27
2018-02-15T14:12:56.846Z,41.47
2018-02-15T14:15:25.783Z,19.83
2018-02-15T14:17:54.763Z,29.40
2018-02-15T14:20:23.638Z,10.93
2018-02-15T14:22:54.242Z,39.33
2018-02-15T14:25:23.467Z,62.47
2018-02-15T14:27:52.200Z,40.73
2018-02-15T14:30:21.240Z,40.20
2018-02-15T14:32:50.075Z,28.97
2018-02-15T14:35:18.976Z,28.23
2018-02-15T14:37:48.655Z,79.07
2018-02-15T14:40:18.289Z,57.63
2018-02-15T14:42:47.923Z,42.93
2018-02-15T14:45:17.556Z,20.17
2018-02-15T14:47:47.109Z,15.40
2018-02-15T14:50:15.944Z,30.43
2018-02-15T14:52:44.841Z,24.77
2018-02-15T14:55:14.068Z,24.63
2018-02-15T14:57:43.742Z,29.53
2018-02-15T15:00:12.662Z,122.47
2018-02-15T15:02:41.661Z,81.10
2018-02-15T15:05:10.534Z,106.03
2018-02-15T15:07:40.086Z,84.83
2018-02-15T15:10:08.813Z,80.53
2018-02-15T15:12:37.673Z,54.30
2018-02-15T15:15:07.240Z,37.60
2018-02-15T15:17:36.458Z,54.77
2018-02-15T15:20:06.141Z,103.47
2018-02-15T15:22:35.062Z,98.30
2018-02-15T15:25:04.710Z,36.57
2018-02-15T15:27:34.381Z,47.17
2018-02-15T15:30:03.114Z,56.20
2018-02-15T15:32:31.962Z,79.23
2018-02-15T15:35:01.414Z,41.50
2018-02-15T15:37:30.367Z,41.27
2018-02-15T15:39:59.318Z,39.07
2018-02-15T15:42:28.172Z,36.80
2018-02-15T15:44:56.957Z,67.10
2018-02-15T15:47:25.841Z,59.90
2018-02-15T15:49:54.963Z,65.07
2018-02-15T15:52:23.733Z,61.63
2018-02-15T15:54:53.581Z,53.03
2018-02-15T15:57:22.345Z,56.43
2018-02-15T15:59:51.275Z,41.83
2018-02-15T16:02:20.598Z,43.93
2018-02-15T16:04:49.413Z,55.03
2018-02-15T16:07:18.097Z,57.90
2018-02-15T16:09:46.944Z,74.10
2018-02-15T16:12:15.780Z,61.93
2018-02-15T16:14:44.580Z,69.07
2018-02-15T16:17:13.538Z,64.90
2018-02-15T16:19:42.382Z,42.27
2018-02-15T16:22:11.141Z,38.70
2018-02-15T16:24:40.103Z,43.77
2018-02-15T16:27:08.919Z,52.07
2018-02-15T16:29:37.717Z,46.07
2018-02-15T16:32:06.481Z,44.50
2018-02-15T16:34:35.457Z,76.27
2018-02-15T16:37:04.344Z,84.73
2018-02-15T16:39:33.853Z,76.77
2018-02-15T16:42:02.753Z,86.20
2018-02-15T16:44:31.564Z,116.07
2018-02-15T16:47:00.576Z,62.47
2018-02-15T16:49:29.429Z,48.07
2018-02-15T16:51:58.180Z,75.83
2018-02-15T16:54:26.873Z,62.33
2018-02-15T16:56:55.848Z,78.47
2018-02-15T16:59:24.608Z,56.70
2018-02-15T17:01:53.605Z,60.60
2018-02-15T17:04:22.709Z,50.67
2018-02-15T17:06:51.720Z,53.77
2018-02-15T17:09:20.673Z,55.00
2018-02-15T17:11:49.522Z,33.77
2018-02-15T17:14:18.286Z,44.77
2018-02-15T17:16:47.232Z,42.57
2018-02-15T17:19:16.024Z,59.03
2018-02-15T17:21:45.074Z,58.07
2018-02-15T17:24:14.336Z,52.37
2018-02-15T17:26:44.190Z,33.50
2018-02-15T17:29:13.706Z,27.83
2018-02-15T17:31:42.448Z,21.97
2018-02-15T17:34:11.211Z,20.77
2018-02-15T17:36:40.373Z,14.90
2018-02-15T17:39:09.148Z,11.00
2018-02-15T17:41:37.946Z,18.47
2018-02-15T17:44:06.969Z,15.37
2018-02-15T17:46:35.936Z,22.90
2018-02-15T17:49:04.868Z,21.17
2018-02-15T17:51:34.576Z,24.93
2018-02-15T17:54:03.364Z,24.43
2018-02-15T17:56:32.227Z,33.50
2018-02-15T17:59:01.029Z,63.10
2018-02-15T18:01:29.919Z,67.22
2018-02-15T18:03:58.721Z,70.30
2018-02-15T18:06:27.681Z,61.73
2018-02-15T18:08:56.685Z,76.93
2018-02-15T18:11:25.889Z,63.20
2018-02-15T18:13:54.669Z,55.83
2018-02-15T18:16:24.580Z,56.37
2018-02-15T18:18:54.116Z,74.90
2018-02-15T18:21:23.016Z,63.03
2018-02-15T18:23:51.818Z,77.40
2018-02-15T18:26:20.626Z,108.50
2018-02-15T18:28:49.641Z,98.17
2018-02-15T18:31:19.214Z,79.53
2018-02-15T18:33:48.054Z,68.77
2018-02-15T18:36:16.871Z,58.73
2018-02-15T18:38:46.523Z,65.27
2018-02-15T18:41:15.393Z,57.13
2018-02-15T18:43:44.972Z,61.80
2018-02-15T18:46:14.817Z,62.83
2018-02-15T18:48:43.908Z,73.93
2018-02-15T18:51:12.805Z,77.70
2018-02-15T18:53:42.425Z,92.73
2018-02-15T18:56:11.306Z,72.47
2018-02-15T18:58:40.449Z,69.90
2018-02-15T19:01:09.154Z,66.80
2018-02-15T19:03:37.932Z,69.00
2018-02-15T19:06:06.726Z,79.23
2018-02-15T19:08:35.620Z,77.63
2018-02-15T19:11:04.476Z,76.23
2018-02-15T19:13:34.092Z,74.00
2018-02-15T19:16:03.305Z,74.27
2018-02-15T19:18:32.489Z,75.97
2018-02-15T19:21:02.357Z,69.67
2018-02-15T19:23:31.956Z,65.33
2018-02-15T19:26:01.055Z,69.77
2018-02-15T19:28:30.213Z,65.30
2018-02-15T19:31:00.034Z,71.10
2018-02-15T19:33:28.769Z,56.60
2018-02-15T19:35:58.302Z,50.27
2018-02-15T19:38:27.976Z,62.87
2018-02-15T19:40:56.683Z,59.60
2018-02-15T19:43:25.450Z,55.07
2018-02-15T19:45:54.249Z,73.27
2018-02-15T19:48:22.985Z,69.37
2018-02-15T19:50:52.244Z,90.90
2018-02-15T19:53:21.089Z,98.10
2018-02-15T19:55:50.069Z,103.97
2018-02-15T19:58:18.883Z,85.37
2018-02-15T20:00:47.690Z,90.17
2018-02-15T20:03:16.594Z,100.10
2018-02-15T20:05:45.442Z,105.50
2018-02-15T20:08:14.476Z,72.80
2018-02-15T20:10:43.998Z,66.50
2018-02-15T20:13:13.154Z,57.53
2018-02-15T20:15:46.893Z,68.80
2018-02-15T20:18:15.966Z,80.07
2018-02-15T20:20:45.954Z,61.53
2018-02-15T20:23:14.698Z,60.70
2018-02-15T20:25:43.571Z,63.17
2018-02-15T20:28:16.163Z,70.10
2018-02-15T20:30:45.768Z,74.43
2018-02-15T20:33:14.594Z,65.23
2018-02-15T20:35:43.369Z,84.53
2018-02-15T20:41:19.067Z,82.83
2018-02-15T20:43:48.682Z,88.13
2018-02-15T20:46:17.449Z,86.63
2018-02-15T20:48:46.367Z,83.77
2018-02-15T20:51:20.887Z,88.87
2018-02-15T20:53:55.372Z,87.80
2018-02-15T20:56:24.327Z,81.10
2018-02-15T20:58:53.133Z,75.53
2018-02-15T21:01:22.653Z,60.10
2018-02-15T21:03:51.574Z,94.83
2018-02-15T21:06:20.825Z,120.17
2018-02-15T21:08:49.679Z,87.47
2018-02-15T21:11:19.421Z,75.60
2018-02-15T21:13:49.007Z,89.00
2018-02-15T21:16:18.521Z,89.93
2018-02-15T21:18:47.806Z,95.73
2018-02-15T21:21:16.629Z,80.00
2018-02-15T21:23:45.571Z,83.57
2018-02-15T21:26:14.658Z,85.07
2018-02-15T21:28:56.280Z,108.22
2018-02-15T21:31:27.778Z,93.10
2018-02-15T21:33:56.496Z,91.03
2018-02-15T21:36:26.474Z,72.90
2018-02-15T21:38:55.409Z,63.07
2018-02-15T21:41:24.396Z,53.47
2018-02-15T21:43:54.039Z,56.22
2018-02-15T21:46:23.106Z,56.37
2018-02-15T21:48:52.668Z,78.73
2018-02-15T21:51:21.931Z,79.53
2018-02-15T21:53:50.883Z,79.33
2018-02-15T21:56:19.720Z,85.47
2018-02-15T21:58:48.455Z,68.63
2018-02-15T22:01:17.235Z,67.53
2018-02-15T22:03:46.032Z,69.10
2018-02-15T22:06:15.992Z,86.43
2018-02-15T22:08:45.062Z,77.70
2018-02-15T22:11:14.967Z,78.30
2018-02-15T22:13:43.888Z,83.93
2018-02-15T22:16:12.672Z,91.80
2018-02-15T22:18:42.171Z,88.63
2018-02-15T22:21:10.919Z,73.25
2018-02-15T22:23:39.855Z,67.97
2018-02-15T22:26:09.479Z,75.97
2018-02-15T22:28:39.207Z,79.05
2018-02-15T22:31:08.152Z,66.68
2018-02-15T22:33:36.954Z,62.47
2018-02-15T22:36:07.894Z,54.42
2018-02-15T22:38:36.955Z,59.00
2018-02-15T22:41:05.849Z,59.45
2018-02-15T22:43:35.111Z,52.85
2018-02-15T22:46:03.950Z,51.50
2018-02-15T22:48:33.570Z,56.72
2018-02-15T22:51:02.486Z,60.12
2018-02-15T22:53:31.357Z,55.17
2018-02-15T22:56:00.325Z,59.70
2018-02-15T22:58:29.884Z,65.62
2018-02-15T23:00:58.657Z,68.90
2018-02-15T23:03:27.687Z,74.40
2018-02-15T23:05:56.404Z,69.60
2018-02-15T23:08:25.138Z,79.75
2018-02-15T23:10:54.023Z,77.05
2018-02-15T23:13:23.609Z,84.70
2018-02-15T23:15:53.468Z,79.47
2018-02-15T23:18:22.257Z,80.95
2018-02-15T23:20:51.109Z,69.63
2018-02-15T23:23:20.645Z,64.55
2018-02-15T23:25:49.394Z,62.67
2018-02-15T23:28:18.172Z,54.75
2018-02-15T23:30:46.917Z,62.95
2018-02-15T23:33:15.858Z,54.38
2018-02-15T23:35:45.382Z,53.03
2018-02-15T23:38:14.918Z,55.90
2018-02-15T23:40:43.709Z,57.55
2018-02-15T23:43:12.703Z,57.05
2018-02-15T23:45:41.705Z,60.85
2018-02-15T23:48:10.592Z,68.78
2018-02-15T23:50:39.874Z,63.27
2018-02-15T23:53:08.632Z,65.00
2018-02-15T23:55:37.602Z,71.72
2018-02-15T23:58:06.514Z,64.78
